Time;durP1;ratioP1;P1;durP2;ratioP2;P2;SDS_P1;SDS_P2;PMS_P1;PMS_P2;Temp;Humidity;BMP_temperature;BMP_pressure;BME280_temperature;BME280_humidity;BME280_pressure;Samples;Min_cycle;Max_cycle;Signal;HPM_P1;HPM_P2
2023/12/29 00:00:31;;;;;;;14.93;2.42;;;;;;;;;;4966426;28;94113;-64
2023/12/29 00:02:57;;;;;;;14.90;2.47;;;;;;;;;;4971790;28;92662;-67
2023/12/29 00:05:24;;;;;;;18.35;3.22;;;;;;;;;;4969188;28;93149;-66
2023/12/29 00:07:50;;;;;;;11.75;2.53;;;;;;;;;;4965820;28;95827;-66
2023/12/29 00:10:16;;;;;;;21.50;2.47;;;;;;;;;;4968328;28;92525;-66
2023/12/29 00:12:43;;;;;;;12.95;2.10;;;;;;;;;;4967834;28;93258;-66
2023/12/29 00:15:10;;;;;;;9.15;2.20;;;;;;;;;;4986954;28;92485;-66
2023/12/29 00:17:40;;;;;;;16.75;2.72;;;;;;;;;;4975867;28;92517;-66
2023/12/29 00:20:10;;;;;;;16.35;2.10;;;;;;;;;;4971786;28;93471;-67
2023/12/29 00:22:38;;;;;;;12.82;2.38;;;;;;;;;;4971463;28;93128;-66
2023/12/29 00:25:05;;;;;;;16.65;2.53;;;;;;;;;;4969082;28;94401;-67
2023/12/29 00:27:31;;;;;;;11.63;2.40;;;;;;;;;;4966249;28;93448;-66
2023/12/29 00:29:58;;;;;;;15.77;3.15;;;;;;;;;;4971796;28;92669;-66
2023/12/29 00:32:24;;;;;;;20.10;2.72;;;;;;;;;;4970715;28;94915;-67
2023/12/29 00:34:51;;;;;;;18.50;3.00;;;;;;;;;;4969980;28;93843;-66
2023/12/29 00:37:17;;;;;;;19.85;2.67;;;;;;;;;;4975043;28;92551;-67
2023/12/29 00:39:44;;;;;;;11.38;2.10;;;;;;;;;;4978598;28;93576;-67
2023/12/29 00:42:10;;;;;;;19.75;3.05;;;;;;;;;;4971721;28;93598;-66
2023/12/29 00:44:37;;;;;;;14.20;2.22;;;;;;;;;;4970312;28;93193;-66
2023/12/29 00:47:03;;;;;;;18.90;2.95;;;;;;;;;;4989046;28;94877;-67
2023/12/29 00:49:29;;;;;;;21.90;3.40;;;;;;;;;;4974781;28;91753;-66
2023/12/29 00:51:56;;;;;;;22.98;3.10;;;;;;;;;;4971920;28;93695;-66
2023/12/29 00:54:22;;;;;;;11.80;2.50;;;;;;;;;;4974975;28;93503;-67
2023/12/29 00:56:52;;;;;;;12.77;2.67;;;;;;;;;;4972996;28;94880;-67
2023/12/29 00:59:19;;;;;;;12.23;2.33;;;;;;;;;;4974491;28;95792;-66
2023/12/29 01:01:46;;;;;;;13.27;2.50;;;;;;;;;;4975917;28;93701;-66
2023/12/29 01:04:14;;;;;;;13.38;2.13;;;;;;;;;;4969428;28;92530;-66
2023/12/29 01:06:40;;;;;;;14.15;2.55;;;;;;;;;;4973768;28;92439;-67
2023/12/29 01:09:08;;;;;;;14.38;2.00;;;;;;;;;;4973516;28;92708;-66
2023/12/29 01:11:35;;;;;;;15.82;2.45;;;;;;;;;;4969966;28;93232;-66
2023/12/29 01:14:01;;;;;;;14.43;2.40;;;;;;;;;;4972477;28;92680;-67
2023/12/29 01:16:28;;;;;;;40.85;8.23;;;;;;;;;;4973939;28;92511;-66
2023/12/29 01:18:54;;;;;;;13.85;2.60;;;;;;;;;;4973284;28;93528;-66
2023/12/29 01:21:21;;;;;;;9.93;2.20;;;;;;;;;;4971645;28;96225;-66
2023/12/29 01:23:47;;;;;;;14.63;2.53;;;;;;;;;;4971716;28;92680;-66
2023/12/29 01:26:13;;;;;;;11.95;3.10;;;;;;;;;;4974598;28;92739;-66
2023/12/29 01:28:40;;;;;;;10.82;1.90;;;;;;;;;;4971539;28;92428;-66
2023/12/29 01:31:08;;;;;;;16.48;2.35;;;;;;;;;;4968983;28;94497;-67
2023/12/29 01:33:35;;;;;;;36.42;14.10;;;;;;;;;;4973045;28;92597;-66
2023/12/29 01:36:01;;;;;;;13.70;2.22;;;;;;;;;;4966958;28;92748;-66
2023/12/29 01:38:40;;;;;;;11.40;2.25;;;;;;;;;;4971329;28;93604;-66
2023/12/29 01:41:06;;;;;;;12.77;2.03;;;;;;;;;;4969613;28;93433;-66
2023/12/29 01:43:32;;;;;;;12.98;2.70;;;;;;;;;;4973619;28;92664;-67
2023/12/29 01:45:59;;;;;;;13.20;2.40;;;;;;;;;;4968997;28;95199;-67
2023/12/29 01:48:26;;;;;;;12.98;2.20;;;;;;;;;;4973832;28;92512;-66
2023/12/29 01:50:53;;;;;;;9.68;2.42;;;;;;;;;;4970082;28;92537;-67
2023/12/29 01:53:20;;;;;;;12.02;2.28;;;;;;;;;;4973846;28;93545;-66
2023/12/29 01:56:00;;;;;;;11.82;2.17;;;;;;;;;;4972939;28;92531;-66
2023/12/29 01:58:27;;;;;;;20.95;2.88;;;;;;;;;;4974203;28;93155;-66
2023/12/29 02:00:54;;;;;;;16.15;3.33;;;;;;;;;;4972582;28;93373;-66
2023/12/29 02:03:20;;;;;;;11.70;2.03;;;;;;;;;;4974437;28;91773;-66
2023/12/29 02:05:47;;;;;;;11.82;2.40;;;;;;;;;;4972055;28;92654;-67
2023/12/29 02:08:13;;;;;;;13.65;2.72;;;;;;;;;;4970875;28;92322;-67
2023/12/29 02:10:40;;;;;;;12.32;2.38;;;;;;;;;;4972655;28;94986;-65
2023/12/29 02:13:06;;;;;;;11.05;2.10;;;;;;;;;;4970203;28;93426;-66
2023/12/29 02:15:33;;;;;;;15.60;2.88;;;;;;;;;;4974101;28;92702;-66
2023/12/29 02:18:04;;;;;;;14.77;2.40;;;;;;;;;;4972062;28;93479;-67
2023/12/29 02:20:31;;;;;;;27.27;12.25;;;;;;;;;;4973044;28;93658;-66
2023/12/29 02:22:58;;;;;;;11.25;2.45;;;;;;;;;;4967578;28;92576;-66
2023/12/29 02:25:24;;;;;;;14.45;2.60;;;;;;;;;;4970395;28;93415;-66
2023/12/29 02:27:51;;;;;;;6.88;1.58;;;;;;;;;;4974100;28;91897;-66
2023/12/29 02:30:36;;;;;;;16.60;2.72;;;;;;;;;;4971942;28;92526;-66
2023/12/29 02:33:05;;;;;;;11.00;2.08;;;;;;;;;;4970897;28;94445;-66
2023/12/29 02:35:34;;;;;;;13.13;2.58;;;;;;;;;;4967310;28;95056;-66
2023/12/29 02:38:00;;;;;;;22.98;3.28;;;;;;;;;;4964970;28;96678;-66
2023/12/29 02:40:27;;;;;;;17.45;2.42;;;;;;;;;;4967830;28;93980;-66
2023/12/29 02:42:54;;;;;;;14.15;2.80;;;;;;;;;;4983914;28;92802;-66
2023/12/29 02:45:20;;;;;;;13.45;2.28;;;;;;;;;;4971255;28;93486;-66
2023/12/29 02:47:48;;;;;;;17.83;3.25;;;;;;;;;;4972866;28;94868;-66
2023/12/29 02:50:14;;;;;;;15.55;2.50;;;;;;;;;;4972694;28;92476;-66
2023/12/29 02:52:41;;;;;;;14.98;2.95;;;;;;;;;;4973127;28;92790;-66
2023/12/29 02:55:07;;;;;;;14.00;2.85;;;;;;;;;;4971662;28;93785;-66
2023/12/29 02:57:34;;;;;;;14.07;2.60;;;;;;;;;;4969172;28;93667;-66
2023/12/29 03:00:00;;;;;;;16.27;2.58;;;;;;;;;;4969726;28;96165;-66
2023/12/29 03:02:27;;;;;;;11.70;2.42;;;;;;;;;;4969332;28;92568;-66
2023/12/29 03:04:53;;;;;;;17.48;2.83;;;;;;;;;;4966791;28;93137;-65
2023/12/29 03:07:19;;;;;;;12.00;2.65;;;;;;;;;;4971300;28;93815;-66
2023/12/29 03:09:46;;;;;;;17.35;3.03;;;;;;;;;;4967163;28;92478;-66
2023/12/29 03:12:12;;;;;;;15.77;3.50;;;;;;;;;;4971936;28;93692;-66
2023/12/29 03:14:39;;;;;;;14.55;2.83;;;;;;;;;;4969391;28;92543;-66
2023/12/29 03:17:05;;;;;;;20.45;3.22;;;;;;;;;;4967115;28;93135;-66
2023/12/29 03:19:32;;;;;;;23.65;3.95;;;;;;;;;;4985319;28;93831;-66
2023/12/29 03:21:58;;;;;;;17.77;3.10;;;;;;;;;;4968866;28;92483;-66
2023/12/29 03:24:25;;;;;;;16.92;3.22;;;;;;;;;;4968768;28;94847;-66
2023/12/29 03:26:51;;;;;;;22.75;3.38;;;;;;;;;;4965270;28;93427;-66
2023/12/29 03:29:17;;;;;;;25.67;4.63;;;;;;;;;;4972448;28;93812;-66
2023/12/29 03:31:44;;;;;;;25.38;3.78;;;;;;;;;;4969224;28;93338;-66
2023/12/29 03:34:11;;;;;;;22.23;3.17;;;;;;;;;;4967979;28;94522;-66
2023/12/29 03:36:37;;;;;;;19.35;2.97;;;;;;;;;;4967344;28;94557;-66
2023/12/29 03:39:04;;;;;;;21.85;2.88;;;;;;;;;;4968733;28;93720;-66
2023/12/29 03:41:30;;;;;;;15.65;3.75;;;;;;;;;;4964754;28;92089;-66
2023/12/29 03:43:57;;;;;;;14.52;2.95;;;;;;;;;;4966307;28;92574;-66
2023/12/29 03:46:23;;;;;;;22.25;3.38;;;;;;;;;;4971498;28;93338;-66
2023/12/29 03:48:49;;;;;;;17.85;3.10;;;;;;;;;;4966605;28;94868;-66
2023/12/29 03:51:17;;;;;;;24.60;4.10;;;;;;;;;;4972547;28;95750;-66
2023/12/29 03:53:44;;;;;;;22.38;3.75;;;;;;;;;;4969143;28;93290;-66
2023/12/29 03:56:18;;;;;;;21.23;3.08;;;;;;;;;;4971347;28;92916;-66
2023/12/29 03:58:44;;;;;;;23.63;2.78;;;;;;;;;;4964924;28;93425;-66
2023/12/29 04:01:14;;;;;;;25.27;3.25;;;;;;;;;;4967405;28;92934;-66
2023/12/29 04:03:41;;;;;;;24.33;3.38;;;;;;;;;;4967920;28;93188;-66
2023/12/29 04:06:08;;;;;;;13.82;2.92;;;;;;;;;;4969362;28;93655;-66
2023/12/29 04:08:35;;;;;;;18.65;2.65;;;;;;;;;;4989717;28;92409;-65
2023/12/29 04:11:02;;;;;;;27.83;3.75;;;;;;;;;;4969727;28;93459;-66
2023/12/29 04:13:28;;;;;;;20.70;3.42;;;;;;;;;;4970819;28;95842;-65
2023/12/29 04:15:54;;;;;;;26.63;3.15;;;;;;;;;;4978105;28;92535;-66
2023/12/29 04:18:22;;;;;;;24.27;2.78;;;;;;;;;;4970500;28;93566;-66
2023/12/29 04:20:48;;;;;;;16.08;2.67;;;;;;;;;;4974706;28;92492;-66
2023/12/29 04:23:15;;;;;;;17.85;3.40;;;;;;;;;;4971574;28;93174;-66
2023/12/29 04:25:41;;;;;;;23.58;3.72;;;;;;;;;;4973880;28;93770;-66
2023/12/29 04:28:08;;;;;;;22.65;3.25;;;;;;;;;;4972764;28;92968;-66
2023/12/29 04:30:34;;;;;;;18.80;2.92;;;;;;;;;;4969489;28;93359;-66
2023/12/29 04:33:01;;;;;;;26.88;3.38;;;;;;;;;;4971886;28;93471;-66
2023/12/29 04:35:28;;;;;;;22.55;2.53;;;;;;;;;;4975679;28;92507;-66
2023/12/29 04:37:54;;;;;;;29.05;3.78;;;;;;;;;;4969188;28;95089;-66
2023/12/29 04:40:20;;;;;;;24.17;4.40;;;;;;;;;;4971288;28;92508;-66
2023/12/29 04:42:47;;;;;;;30.25;4.07;;;;;;;;;;4973680;28;93142;-66
2023/12/29 04:45:13;;;;;;;26.00;3.65;;;;;;;;;;4973991;28;94506;-66
2023/12/29 04:47:40;;;;;;;25.27;4.00;;;;;;;;;;4972001;28;92677;-66
2023/12/29 04:50:06;;;;;;;27.95;3.97;;;;;;;;;;4966655;28;93039;-66
2023/12/29 04:52:34;;;;;;;20.80;2.85;;;;;;;;;;4987182;28;93374;-66
2023/12/29 04:55:00;;;;;;;13.00;3.08;;;;;;;;;;4973662;28;91665;-65
2023/12/29 04:57:26;;;;;;;17.25;3.15;;;;;;;;;;4970684;28;92684;-65
2023/12/29 04:59:53;;;;;;;23.98;3.97;;;;;;;;;;4968948;28;93686;-65
2023/12/29 05:02:19;;;;;;;14.85;3.75;;;;;;;;;;4970486;28;94865;-66
2023/12/29 05:04:46;;;;;;;22.92;3.50;;;;;;;;;;4970794;28;93726;-65
2023/12/29 05:07:12;;;;;;;19.02;3.70;;;;;;;;;;4972174;28;92713;-65
2023/12/29 05:09:39;;;;;;;22.58;3.83;;;;;;;;;;4975123;28;93295;-66
2023/12/29 05:12:05;;;;;;;22.60;4.20;;;;;;;;;;4966404;28;93485;-65
2023/12/29 05:14:32;;;;;;;25.60;2.90;;;;;;;;;;4973740;28;92775;-66
2023/12/29 05:16:58;;;;;;;33.58;4.53;;;;;;;;;;4970682;28;93756;-66
2023/12/29 05:19:25;;;;;;;24.95;3.72;;;;;;;;;;4968965;28;92662;-65
2023/12/29 05:21:53;;;;;;;25.65;3.95;;;;;;;;;;4976636;28;92509;-65
2023/12/29 05:24:20;;;;;;;19.55;3.83;;;;;;;;;;4972486;28;93712;-66
2023/12/29 05:26:46;;;;;;;23.30;3.67;;;;;;;;;;4973261;28;94816;-66
2023/12/29 05:29:12;;;;;;;22.05;3.55;;;;;;;;;;4972671;28;95546;-66
2023/12/29 05:31:39;;;;;;;20.58;3.38;;;;;;;;;;4969542;28;93728;-65
2023/12/29 05:34:05;;;;;;;21.98;4.05;;;;;;;;;;4973021;28;93799;-66
2023/12/29 05:36:35;;;;;;;24.92;3.92;;;;;;;;;;4971550;28;92710;-66
2023/12/29 05:39:02;;;;;;;26.27;4.80;;;;;;;;;;4969527;28;93363;-65
2023/12/29 05:41:29;;;;;;;19.23;3.42;;;;;;;;;;4973932;28;92544;-66
2023/12/29 05:43:57;;;;;;;18.50;3.45;;;;;;;;;;4978181;28;93172;-66
2023/12/29 05:46:24;;;;;;;21.95;3.13;;;;;;;;;;4968345;28;92460;-66
2023/12/29 05:48:52;;;;;;;18.35;3.13;;;;;;;;;;4973672;28;93187;-66
2023/12/29 05:51:19;;;;;;;21.85;2.83;;;;;;;;;;4970869;28;95910;-66
2023/12/29 05:53:45;;;;;;;25.95;4.15;;;;;;;;;;4984267;28;92650;-66
2023/12/29 05:56:13;;;;;;;18.23;2.78;;;;;;;;;;4972280;28;93149;-66
2023/12/29 05:58:42;;;;;;;21.83;4.13;;;;;;;;;;4969188;28;93462;-66
2023/12/29 06:01:09;;;;;;;25.95;3.88;;;;;;;;;;4966289;28;92708;-66
2023/12/29 06:03:36;;;;;;;24.08;3.45;;;;;;;;;;4975071;28;93487;-66
2023/12/29 06:06:03;;;;;;;23.77;2.85;;;;;;;;;;4987319;28;92441;-66
2023/12/29 06:08:29;;;;;;;22.63;3.97;;;;;;;;;;4987407;28;93254;-66
2023/12/29 06:10:56;;;;;;;21.25;3.00;;;;;;;;;;4966944;28;93448;-66
2023/12/29 06:13:23;;;;;;;22.08;3.22;;;;;;;;;;4971648;28;93081;-65
2023/12/29 06:15:49;;;;;;;21.05;3.40;;;;;;;;;;4968465;28;94802;-66
2023/12/29 06:18:16;;;;;;;25.98;4.07;;;;;;;;;;4969548;28;95436;-66
2023/12/29 06:20:42;;;;;;;20.30;3.50;;;;;;;;;;4972831;28;92532;-66
2023/12/29 06:23:09;;;;;;;23.83;3.92;;;;;;;;;;4985130;28;94665;-66
2023/12/29 06:25:35;;;;;;;28.65;3.90;;;;;;;;;;4971552;28;93424;-66
2023/12/29 06:28:06;;;;;;;24.63;3.40;;;;;;;;;;4966499;28;93709;-66
2023/12/29 06:30:33;;;;;;;20.85;3.22;;;;;;;;;;4972054;28;94424;-66
2023/12/29 06:32:59;;;;;;;23.75;4.10;;;;;;;;;;4971109;28;91812;-66
2023/12/29 06:35:26;;;;;;;17.08;2.80;;;;;;;;;;4968894;28;92562;-66
2023/12/29 06:37:52;;;;;;;18.67;3.17;;;;;;;;;;4973618;28;93394;-66
2023/12/29 06:40:18;;;;;;;24.25;3.60;;;;;;;;;;4967903;28;94853;-65
2023/12/29 06:42:45;;;;;;;21.92;4.10;;;;;;;;;;4971221;28;97148;-66
2023/12/29 06:45:11;;;;;;;18.58;2.92;;;;;;;;;;4971033;28;93954;-66
2023/12/29 06:47:38;;;;;;;24.67;3.55;;;;;;;;;;4975686;28;92594;-65
2023/12/29 06:50:06;;;;;;;21.35;3.42;;;;;;;;;;4970093;28;93841;-66
2023/12/29 06:52:34;;;;;;;20.50;2.92;;;;;;;;;;4966825;28;92523;-66
2023/12/29 06:55:01;;;;;;;17.25;2.47;;;;;;;;;;4970270;28;93713;-67
2023/12/29 06:57:28;;;;;;;14.45;2.75;;;;;;;;;;4969195;28;93941;-67
2023/12/29 06:59:54;;;;;;;19.05;3.47;;;;;;;;;;4972439;28;93713;-66
2023/12/29 07:02:21;;;;;;;13.25;2.40;;;;;;;;;;4970202;28;92407;-66
2023/12/29 07:04:47;;;;;;;17.27;3.83;;;;;;;;;;4969331;28;95944;-63
2023/12/29 07:07:13;;;;;;;18.02;2.58;;;;;;;;;;4970915;28;92500;-66
2023/12/29 07:09:40;;;;;;;9.55;1.77;;;;;;;;;;4971337;28;93181;-65
2023/12/29 07:12:07;;;;;;;15.40;2.25;;;;;;;;;;4969285;28;92462;-66
2023/12/29 07:14:35;;;;;;;20.05;3.45;;;;;;;;;;4983380;28;93892;-66
2023/12/29 07:17:02;;;;;;;16.90;3.35;;;;;;;;;;4970223;28;92741;-66
2023/12/29 07:19:36;;;;;;;9.65;2.20;;;;;;;;;;4971782;28;92969;-66
2023/12/29 07:22:04;;;;;;;16.02;2.75;;;;;;;;;;4972205;28;93100;-66
2023/12/29 07:24:35;;;;;;;11.07;2.15;;;;;;;;;;4969451;28;93804;-66
2023/12/29 07:27:02;;;;;;;13.40;2.40;;;;;;;;;;4967806;28;92764;-66
2023/12/29 07:29:28;;;;;;;12.82;2.03;;;;;;;;;;4969893;28;96353;-66
2023/12/29 07:31:54;;;;;;;15.80;2.63;;;;;;;;;;4975997;28;94737;-66
2023/12/29 07:34:21;;;;;;;12.98;2.33;;;;;;;;;;4968494;28;92821;-66
2023/12/29 07:36:48;;;;;;;12.20;2.58;;;;;;;;;;4972449;28;93419;-66
2023/12/29 07:39:14;;;;;;;15.70;2.75;;;;;;;;;;4973102;28;92554;-66
2023/12/29 07:41:41;;;;;;;10.80;1.80;;;;;;;;;;4968455;28;92812;-66
2023/12/29 07:44:13;;;;;;;9.57;2.58;;;;;;;;;;4969682;28;93528;-66
2023/12/29 07:46:40;;;;;;;9.88;2.03;;;;;;;;;;4987276;28;91778;-66
2023/12/29 07:49:07;;;;;;;15.13;2.33;;;;;;;;;;4967445;28;92876;-66
2023/12/29 07:51:34;;;;;;;18.55;2.78;;;;;;;;;;4969690;28;94094;-65
2023/12/29 07:54:01;;;;;;;14.10;2.65;;;;;;;;;;4972336;28;94833;-66
2023/12/29 07:56:27;;;;;;;13.65;2.88;;;;;;;;;;4968202;28;93496;-66
2023/12/29 07:58:53;;;;;;;9.45;2.40;;;;;;;;;;4967384;28;92450;-66
2023/12/29 08:01:20;;;;;;;14.43;2.88;;;;;;;;;;4967138;28;96458;-67
2023/12/29 08:03:46;;;;;;;11.98;2.17;;;;;;;;;;4969161;28;93417;-67
2023/12/29 08:06:13;;;;;;;8.73;2.05;;;;;;;;;;4970039;28;94091;-66
2023/12/29 08:08:40;;;;;;;11.20;2.10;;;;;;;;;;4971038;28;93222;-66
2023/12/29 08:11:12;;;;;;;10.23;2.83;;;;;;;;;;4970649;28;92486;-66
2023/12/29 08:13:39;;;;;;;14.20;2.28;;;;;;;;;;4969702;28;92462;-66
2023/12/29 08:16:07;;;;;;;10.63;2.28;;;;;;;;;;4967330;28;93400;-66
2023/12/29 08:18:33;;;;;;;11.98;2.92;;;;;;;;;;4965114;28;94936;-66
2023/12/29 08:21:00;;;;;;;6.32;1.98;;;;;;;;;;4960765;28;95972;-67
2023/12/29 08:23:26;;;;;;;12.75;2.38;;;;;;;;;;4969306;28;93815;-67
2023/12/29 08:25:53;;;;;;;11.35;2.45;;;;;;;;;;4971555;28;93621;-66
2023/12/29 08:28:23;;;;;;;6.87;2.03;;;;;;;;;;4971389;28;93225;-66
2023/12/29 08:30:49;;;;;;;8.57;2.17;;;;;;;;;;4964661;28;93289;-65
2023/12/29 08:33:16;;;;;;;5.28;2.17;;;;;;;;;;4963092;28;92452;-65
2023/12/29 08:35:44;;;;;;;7.90;1.90;;;;;;;;;;4973754;28;94571;-66
2023/12/29 08:38:10;;;;;;;10.88;2.15;;;;;;;;;;4967146;28;92440;-65
2023/12/29 08:40:37;;;;;;;12.10;2.20;;;;;;;;;;4962449;28;92681;-66
2023/12/29 08:43:03;;;;;;;7.45;2.08;;;;;;;;;;4962294;28;95980;-66
2023/12/29 08:45:30;;;;;;;13.07;2.80;;;;;;;;;;4971298;28;92535;-66
2023/12/29 08:47:56;;;;;;;10.98;1.90;;;;;;;;;;4962466;28;93237;-66
2023/12/29 08:50:23;;;;;;;8.43;2.40;;;;;;;;;;4968415;28;94534;-65
2023/12/29 08:52:49;;;;;;;4.90;2.20;;;;;;;;;;4963890;28;92485;-66
2023/12/29 08:55:15;;;;;;;9.07;2.15;;;;;;;;;;4970754;28;94234;-66
2023/12/29 08:57:42;;;;;;;12.48;2.78;;;;;;;;;;4972988;28;93603;-66
2023/12/29 09:00:09;;;;;;;7.38;1.95;;;;;;;;;;4970151;28;93240;-66
2023/12/29 09:02:35;;;;;;;8.02;1.83;;;;;;;;;;4971975;28;93404;-66
2023/12/29 09:05:02;;;;;;;8.68;2.20;;;;;;;;;;4969956;28;92445;-65
2023/12/29 09:07:30;;;;;;;7.15;2.20;;;;;;;;;;4970363;28;95282;-66
2023/12/29 09:09:56;;;;;;;5.75;1.67;;;;;;;;;;4970698;28;93808;-66
2023/12/29 09:12:22;;;;;;;12.25;2.15;;;;;;;;;;4971962;28;92518;-66
2023/12/29 09:14:49;;;;;;;7.82;1.70;;;;;;;;;;4971110;28;94213;-66
2023/12/29 09:17:15;;;;;;;8.80;2.17;;;;;;;;;;4971719;28;94726;-65
2023/12/29 09:19:41;;;;;;;8.73;1.90;;;;;;;;;;4969611;28;92390;-65
2023/12/29 09:22:09;;;;;;;12.50;2.22;;;;;;;;;;4985382;28;93416;-65
2023/12/29 09:24:36;;;;;;;10.05;2.30;;;;;;;;;;4972500;28;92193;-66
2023/12/29 09:27:02;;;;;;;12.45;2.13;;;;;;;;;;4971919;28;92550;-66
2023/12/29 09:29:29;;;;;;;15.57;2.38;;;;;;;;;;4967642;28;93436;-66
2023/12/29 09:31:55;;;;;;;7.45;2.05;;;;;;;;;;4968478;28;94823;-66
2023/12/29 09:34:21;;;;;;;10.32;1.92;;;;;;;;;;4973295;28;95733;-66
2023/12/29 09:36:48;;;;;;;12.55;2.15;;;;;;;;;;4970566;28;93539;-65
2023/12/29 09:39:14;;;;;;;6.00;1.80;;;;;;;;;;4969513;28;93436;-66
2023/12/29 09:41:42;;;;;;;9.07;1.92;;;;;;;;;;4975027;28;93453;-65
2023/12/29 09:44:12;;;;;;;10.23;1.83;;;;;;;;;;4967925;28;92365;-66
2023/12/29 09:46:40;;;;;;;11.32;2.42;;;;;;;;;;4964395;28;92472;-66
2023/12/29 09:49:08;;;;;;;10.38;2.22;;;;;;;;;;4973076;28;92875;-66
2023/12/29 09:51:36;;;;;;;10.00;1.77;;;;;;;;;;4967954;28;92491;-66
2023/12/29 09:54:02;;;;;;;5.70;1.65;;;;;;;;;;4969742;28;93242;-66
2023/12/29 09:56:29;;;;;;;6.90;1.92;;;;;;;;;;4964875;28;95778;-66
2023/12/29 09:58:56;;;;;;;10.77;2.58;;;;;;;;;;4967811;28;92435;-66
2023/12/29 10:01:23;;;;;;;7.88;1.73;;;;;;;;;;4973112;28;93211;-66
2023/12/29 10:03:49;;;;;;;6.97;2.08;;;;;;;;;;4973398;28;93451;-66
2023/12/29 10:06:19;;;;;;;8.35;2.15;;;;;;;;;;4964829;28;93205;-66
2023/12/29 10:08:47;;;;;;;8.43;1.53;;;;;;;;;;4969168;28;93427;-65
2023/12/29 10:11:15;;;;;;;12.60;2.30;;;;;;;;;;4973502;28;92472;-66
2023/12/29 10:13:42;;;;;;;4.43;1.80;;;;;;;;;;4969658;28;93138;-66
2023/12/29 10:16:13;;;;;;;9.73;1.63;;;;;;;;;;4972156;28;93989;-66
2023/12/29 10:18:52;;;;;;;6.53;2.08;;;;;;;;;;4981089;28;93178;-72
2023/12/29 10:21:31;;;;;;;8.95;1.88;;;;;;;;;;4971526;28;95060;-65
2023/12/29 10:24:17;;;;;;;5.43;1.52;;;;;;;;;;4976272;28;93436;-66
2023/12/29 10:26:44;;;;;;;9.02;2.30;;;;;;;;;;4970888;28;93270;-66
2023/12/29 10:29:11;;;;;;;5.93;1.58;;;;;;;;;;4970696;28;93435;-66
2023/12/29 10:31:38;;;;;;;8.38;1.73;;;;;;;;;;4968859;28;92532;-65
2023/12/29 10:34:17;;;;;;;7.65;1.70;;;;;;;;;;4969392;28;93605;-66
2023/12/29 10:36:48;;;;;;;5.93;1.55;;;;;;;;;;4966492;28;93423;-64
2023/12/29 10:39:15;;;;;;;;;;;;;;;;;;4968245;28;91678;-64
2023/12/29 10:41:41;;;;;;;7.55;2.17;;;;;;;;;;4988196;28;122612;-65
2023/12/29 10:44:08;;;;;;;5.05;1.60;;;;;;;;;;4968960;28;93320;-65
2023/12/29 10:46:34;;;;;;;6.32;1.65;;;;;;;;;;4970338;28;94992;-65
2023/12/29 10:49:11;;;;;;;5.72;1.30;;;;;;;;;;4965989;28;93436;-63
2023/12/29 10:51:38;;;;;;;7.70;1.98;;;;;;;;;;4968478;28;92534;-63
2023/12/29 10:54:04;;;;;;;5.40;1.58;;;;;;;;;;4964359;28;93345;-63
2023/12/29 10:56:33;;;;;;;9.85;2.03;;;;;;;;;;4970705;28;93453;-63
2023/12/29 10:59:02;;;;;;;7.43;1.65;;;;;;;;;;4969616;28;92491;-70
2023/12/29 11:01:33;;;;;;;7.05;1.73;;;;;;;;;;4972784;28;94588;-66
2023/12/29 11:04:00;;;;;;;8.45;1.75;;;;;;;;;;4969635;28;92788;-63
2023/12/29 11:06:27;;;;;;;8.27;1.70;;;;;;;;;;4972679;28;92487;-63
2023/12/29 11:08:54;;;;;;;3.70;1.65;;;;;;;;;;4975734;28;93091;-63
2023/12/29 11:11:21;;;;;;;5.03;1.15;;;;;;;;;;4963774;28;94889;-64
2023/12/29 11:13:47;;;;;;;6.70;1.50;;;;;;;;;;4964780;28;96053;-64
2023/12/29 11:16:17;;;;;;;5.88;1.35;;;;;;;;;;4970527;28;93901;-65
2023/12/29 11:18:44;;;;;;;10.70;1.70;;;;;;;;;;4971495;28;92560;-64
2023/12/29 11:21:12;;;;;;;10.18;1.90;;;;;;;;;;4970595;28;93335;-64
2023/12/29 11:23:38;;;;;;;13.60;2.30;;;;;;;;;;4970488;28;93363;-64
2023/12/29 11:26:07;;;;;;;14.95;2.25;;;;;;;;;;4969135;28;92457;-64
2023/12/29 11:28:33;;;;;;;8.95;1.50;;;;;;;;;;4966274;28;93732;-64
2023/12/29 11:31:00;;;;;;;9.38;1.88;;;;;;;;;;4968870;28;93406;-64
2023/12/29 11:33:40;;;;;;;13.48;2.38;;;;;;;;;;4967272;28;92485;-63
2023/12/29 11:36:12;;;;;;;7.90;1.73;;;;;;;;;;4966577;28;95963;-64
2023/12/29 11:39:14;;;;;;;8.05;1.60;;;;;;;;;;4965029;28;92533;-64
2023/12/29 11:41:53;;;;;;;12.18;1.60;;;;;;;;;;4967324;28;93241;-64
2023/12/29 11:44:29;;;;;;;10.98;1.27;;;;;;;;;;4965793;28;94472;-66
2023/12/29 11:46:57;;;;;;;7.50;2.45;;;;;;;;;;4968474;28;93721;-63
2023/12/29 11:49:23;;;;;;;11.68;2.88;;;;;;;;;;4964460;28;94264;-64
2023/12/29 11:51:50;;;;;;;9.98;1.77;;;;;;;;;;4960811;28;94512;-61
2023/12/29 11:54:23;;;;;;;8.57;2.10;;;;;;;;;;4970097;28;92077;-66
2023/12/29 11:56:50;;;;;;;19.98;2.25;;;;;;;;;;4968400;28;93439;-68
2023/12/29 11:59:21;;;;;;;11.77;2.55;;;;;;;;;;4966423;28;92750;-68
2023/12/29 12:01:49;;;;;;;15.70;2.78;;;;;;;;;;4960968;28;95164;-69
2023/12/29 12:04:33;;;;;;;18.08;2.15;;;;;;;;;;4970799;28;93397;-68
2023/12/29 12:07:00;;;;;;;16.10;2.72;;;;;;;;;;4966254;28;92383;-68
2023/12/29 12:09:26;;;;;;;9.43;2.40;;;;;;;;;;4964602;28;93068;-68
2023/12/29 12:11:53;;;;;;;14.65;2.90;;;;;;;;;;4968779;28;93498;-68
2023/12/29 12:14:38;;;;;;;13.48;2.53;;;;;;;;;;4962668;28;92539;-67
2023/12/29 12:17:05;;;;;;;16.08;2.50;;;;;;;;;;4975239;28;93100;-67
2023/12/29 12:19:34;;;;;;;14.75;2.15;;;;;;;;;;4970244;28;91800;-67
2023/12/29 12:22:02;;;;;;;19.38;2.88;;;;;;;;;;4965505;28;92760;-67
2023/12/29 12:24:28;;;;;;;16.33;3.83;;;;;;;;;;4968198;28;93448;-68
2023/12/29 12:26:55;;;;;;;17.73;2.58;;;;;;;;;;4960966;28;94931;-68
2023/12/29 12:29:21;;;;;;;16.35;2.65;;;;;;;;;;4964587;28;95501;-68
2023/12/29 12:31:51;;;;;;;14.80;3.28;;;;;;;;;;4968310;28;93520;-68
2023/12/29 12:34:17;;;;;;;17.00;2.33;;;;;;;;;;4969371;28;92930;-68
2023/12/29 12:36:56;;;;;;;21.20;3.30;;;;;;;;;;4973252;28;93765;-67
2023/12/29 12:39:23;;;;;;;14.27;2.60;;;;;;;;;;4975725;28;92433;-68
2023/12/29 12:41:49;;;;;;;11.43;2.45;;;;;;;;;;4975781;28;92464;-68
2023/12/29 12:44:16;;;;;;;18.10;2.83;;;;;;;;;;4970331;28;93020;-69
2023/12/29 12:46:57;;;;;;;20.33;2.50;;;;;;;;;;4971851;28;93006;-68
2023/12/29 12:49:23;;;;;;;15.02;2.58;;;;;;;;;;4972894;28;93167;-69
2023/12/29 12:51:50;;;;;;;19.00;3.20;;;;;;;;;;4965227;28;95785;-68
2023/12/29 12:54:19;;;;;;;12.43;2.28;;;;;;;;;;4966183;28;92488;-69
2023/12/29 12:56:46;;;;;;;14.10;2.65;;;;;;;;;;4971954;28;94029;-69
2023/12/29 12:59:13;;;;;;;15.93;2.58;;;;;;;;;;4974506;28;93333;-67
2023/12/29 13:01:39;;;;;;;21.67;3.05;;;;;;;;;;4973673;28;93193;-67
2023/12/29 13:04:06;;;;;;;23.73;3.70;;;;;;;;;;4969816;28;94943;-68
2023/12/29 13:06:33;;;;;;;13.25;2.97;;;;;;;;;;4969877;28;92819;-67
2023/12/29 13:09:05;;;;;;;22.38;2.92;;;;;;;;;;4949934;28;91832;-67
2023/12/29 13:11:31;;;;;;;16.27;2.67;;;;;;;;;;4970923;28;94417;-65
2023/12/29 13:13:57;;;;;;;25.20;2.90;;;;;;;;;;4974460;28;94975;-66
2023/12/29 13:16:30;;;;;;;17.05;2.97;;;;;;;;;;4967837;28;95370;-66
2023/12/29 13:18:57;;;;;;;20.10;3.03;;;;;;;;;;4974261;28;94423;-66
2023/12/29 13:21:23;;;;;;;26.75;2.92;;;;;;;;;;4977826;28;92713;-66
2023/12/29 13:23:50;;;;;;;21.65;3.13;;;;;;;;;;4972949;28;93399;-64
2023/12/29 13:26:18;;;;;;;20.33;3.55;;;;;;;;;;4963954;28;92565;-66
2023/12/29 13:28:44;;;;;;;20.80;3.28;;;;;;;;;;4967537;28;92470;-66
2023/12/29 13:31:12;;;;;;;20.50;3.72;;;;;;;;;;4966423;28;94388;-66
2023/12/29 13:33:42;;;;;;;20.15;2.80;;;;;;;;;;4967147;28;91987;-70
2023/12/29 13:36:18;;;;;;;22.85;3.15;;;;;;;;;;4967143;28;92933;-65
2023/12/29 13:38:48;;;;;;;60.70;38.95;;;;;;;;;;4970748;28;93448;-65
2023/12/29 13:41:15;;;;;;;;;;;;;;;;;;4969354;28;94998;-65
2023/12/29 13:43:43;;;;;;;31.52;4.40;;;;;;;;;;4974460;28;125858;-65
2023/12/29 13:46:11;;;;;;;25.55;3.72;;;;;;;;;;4970334;28;92426;-65
2023/12/29 13:48:38;;;;;;;41.63;11.57;;;;;;;;;;4967631;28;93225;-65
2023/12/29 13:51:05;;;;;;;19.70;3.80;;;;;;;;;;4968165;28;93523;-65
2023/12/29 13:53:32;;;;;;;25.80;3.55;;;;;;;;;;4970464;28;92945;-65
2023/12/29 13:56:08;;;;;;;26.33;5.22;;;;;;;;;;4967538;28;93204;-65
2023/12/29 13:58:35;;;;;;;23.48;3.95;;;;;;;;;;4973134;28;92729;-65
2023/12/29 14:01:03;;;;;;;24.67;3.92;;;;;;;;;;4969688;28;92676;-65
2023/12/29 14:03:37;;;;;;;19.52;2.72;;;;;;;;;;4971586;28;92494;-65
2023/12/29 14:06:07;;;;;;;20.40;3.20;;;;;;;;;;4967826;28;96167;-65
2023/12/29 14:08:40;;;;;;;19.17;3.28;;;;;;;;;;4966962;28;96642;-66
2023/12/29 14:11:10;;;;;;;25.25;3.53;;;;;;;;;;4969654;28;93652;-66
2023/12/29 14:13:42;;;;;;;17.50;2.85;;;;;;;;;;4969854;28;92639;-66
2023/12/29 14:16:09;;;;;;;26.58;3.70;;;;;;;;;;4970573;28;93297;-66
2023/12/29 14:18:47;;;;;;;26.40;3.63;;;;;;;;;;4969432;28;93589;-66
2023/12/29 14:21:26;;;;;;;22.58;2.85;;;;;;;;;;4969587;28;92821;-65
2023/12/29 14:24:00;;;;;;;25.65;3.35;;;;;;;;;;4987157;28;93201;-65
2023/12/29 14:26:26;;;;;;;17.90;2.85;;;;;;;;;;4964002;28;93574;-66
2023/12/29 14:29:05;;;;;;;28.42;3.28;;;;;;;;;;4974192;28;92485;-65
2023/12/29 14:31:36;;;;;;;17.67;2.72;;;;;;;;;;4961891;28;95972;-66
2023/12/29 14:34:03;;;;;;;20.85;3.63;;;;;;;;;;4968702;28;92524;-66
2023/12/29 14:36:33;;;;;;;21.20;3.33;;;;;;;;;;4970928;28;93395;-66